createdAt,value
2022-12-20T00:01:13.668Z,96795.03
2022-12-20T00:03:40.741Z,96811.03
2022-12-20T00:06:08.021Z,96797.22
2022-12-20T00:08:36.479Z,96817.44
2022-12-20T00:11:05.504Z,96818.41
2022-12-20T00:13:33.281Z,96824.75
2022-12-20T00:16:12.880Z,96824.63
2022-12-20T00:18:41.163Z,96829.19
2022-12-20T00:21:12.655Z,96830.84
2022-12-20T00:23:40.389Z,96835.53
2022-12-20T00:26:16.231Z,96786.88
2022-12-20T00:28:45.516Z,96831.66
2022-12-20T00:31:14.776Z,96830.00
2022-12-20T00:33:42.125Z,96825.47
2022-12-20T00:36:09.535Z,96807.31
2022-12-20T00:38:36.840Z,96813.97
2022-12-20T00:41:04.216Z,96827.66
2022-12-20T00:43:32.478Z,96808.19
2022-12-20T00:46:00.095Z,96777.91
2022-12-20T00:48:27.460Z,96815.06
2022-12-20T00:50:59.572Z,96809.97
2022-12-20T00:53:27.531Z,96821.84
2022-12-20T00:55:54.607Z,96822.00
2022-12-20T00:58:22.355Z,96812.84
2022-12-20T01:00:55.710Z,96819.50
2022-12-20T01:03:25.019Z,96807.03
2022-12-20T01:05:56.500Z,96829.88
2022-12-20T01:08:24.668Z,96823.09
2022-12-20T01:11:03.888Z,96790.06
2022-12-20T01:13:32.813Z,96759.38
2022-12-20T01:16:09.362Z,96802.63
2022-12-20T01:18:36.690Z,96811.47
2022-12-20T01:21:05.788Z,96774.41
2022-12-20T01:23:32.930Z,96813.56
2022-12-20T01:26:01.531Z,96736.97
2022-12-20T01:28:29.449Z,96803.47
2022-12-20T01:30:57.088Z,96797.25
2022-12-20T01:33:24.152Z,96721.63
2022-12-20T01:36:04.631Z,96773.47
2022-12-20T01:38:32.730Z,96766.97
2022-12-20T01:40:59.841Z,96792.94
2022-12-20T01:43:49.357Z,96733.66
2022-12-20T01:46:17.226Z,96772.50
2022-12-20T01:48:56.174Z,96743.75
2022-12-20T01:51:24.640Z,96770.56
2022-12-20T01:53:56.985Z,96770.03
2022-12-20T01:56:24.461Z,96768.50
2022-12-20T01:58:54.344Z,96773.19
2022-12-20T02:01:24.332Z,96730.63
2022-12-20T02:03:52.844Z,96757.03
2022-12-20T02:06:22.736Z,96744.88
2022-12-20T02:08:52.641Z,96750.13
2022-12-20T02:11:36.071Z,96755.78
2022-12-20T02:14:18.402Z,96755.50
2022-12-20T02:16:58.416Z,96741.13
2022-12-20T02:20:11.303Z,96757.97
2022-12-20T02:23:15.445Z,96773.03
2022-12-20T02:25:48.686Z,96766.56
2022-12-20T02:28:42.204Z,96763.94
2022-12-20T02:31:14.240Z,96745.94
2022-12-20T02:33:46.280Z,96754.78
2022-12-20T02:36:16.566Z,96758.38
2022-12-20T02:38:44.877Z,96727.56
2022-12-20T02:41:27.165Z,96759.47
2022-12-20T02:44:24.239Z,96756.06
2022-12-20T02:46:53.095Z,96753.13
2022-12-20T02:49:26.625Z,96744.72
2022-12-20T02:51:56.179Z,96724.41
2022-12-20T02:54:24.610Z,96752.84
2022-12-20T02:57:02.060Z,96754.78
2022-12-20T02:59:36.425Z,96752.28
2022-12-20T03:02:05.463Z,96723.28
2022-12-20T03:04:37.801Z,96711.09
2022-12-20T03:07:07.735Z,96747.59
2022-12-20T03:09:37.676Z,96742.22
2022-12-20T03:12:05.376Z,96730.03
2022-12-20T03:14:35.220Z,96732.53
2022-12-20T03:17:05.938Z,96732.13
2022-12-20T03:19:33.408Z,96740.56
2022-12-20T03:22:00.687Z,96707.38
2022-12-20T03:24:27.744Z,96733.22
2022-12-20T03:26:55.654Z,96732.53
2022-12-20T03:29:25.062Z,96730.19
2022-12-20T03:31:52.603Z,96737.66
2022-12-20T03:34:20.066Z,96728.81
2022-12-20T03:36:47.712Z,96700.34
2022-12-20T03:39:14.887Z,96742.06
2022-12-20T03:41:41.957Z,96701.44
2022-12-20T03:44:11.580Z,96737.25
2022-12-20T03:46:38.595Z,96733.09
2022-12-20T03:49:06.106Z,96729.91
2022-12-20T03:51:37.592Z,96727.41
2022-12-20T03:54:04.988Z,96690.25
2022-12-20T03:56:50.685Z,96736.25
2022-12-20T03:59:18.483Z,96722.03
2022-12-20T04:01:45.825Z,96696.44
2022-12-20T04:04:14.927Z,96723.69
2022-12-20T04:06:42.493Z,96681.09
2022-12-20T04:09:09.844Z,96728.63
2022-12-20T04:11:43.286Z,96725.03
2022-12-20T04:14:14.133Z,96715.25
2022-12-20T04:16:41.413Z,96719.09
2022-12-20T04:19:09.966Z,96692.97
2022-12-20T04:21:41.733Z,96707.91
2022-12-20T04:24:09.347Z,96700.00
2022-12-20T04:26:52.459Z,96689.09
2022-12-20T04:29:19.989Z,96703.03
2022-12-20T04:31:48.276Z,96716.47
2022-12-20T04:34:15.650Z,96713.28
2022-12-20T04:36:43.846Z,96698.09
2022-12-20T04:39:17.598Z,96685.94
2022-12-20T04:42:04.225Z,96705.66
2022-12-20T04:44:31.377Z,96713.97
2022-12-20T04:46:59.953Z,96679.53
2022-12-20T04:49:27.685Z,96671.53
2022-12-20T04:51:54.772Z,96677.50
2022-12-20T04:54:21.813Z,96701.38
2022-12-20T04:56:58.986Z,96698.88
2022-12-20T04:59:25.975Z,96665.47
2022-12-20T05:01:55.264Z,96703.16
2022-12-20T05:04:41.516Z,96702.47
2022-12-20T05:07:08.784Z,96698.59
2022-12-20T05:09:38.811Z,96643.16
2022-12-20T05:12:06.214Z,96700.53
2022-12-20T05:14:34.063Z,96682.53
2022-12-20T05:17:01.126Z,96679.91
2022-12-20T05:19:29.336Z,96669.94
2022-12-20T05:22:15.100Z,96668.97
2022-12-20T05:25:09.645Z,96715.53
2022-12-20T05:27:39.487Z,96696.72
2022-12-20T05:30:07.903Z,96715.94
2022-12-20T05:32:35.346Z,96694.69
2022-12-20T05:35:02.803Z,96705.88
2022-12-20T05:37:31.499Z,96694.66
2022-12-20T05:40:07.306Z,96712.78
2022-12-20T05:42:35.148Z,96718.72
2022-12-20T05:45:03.071Z,96646.09
2022-12-20T05:47:34.084Z,96713.84
2022-12-20T05:50:12.356Z,96718.41
2022-12-20T05:53:11.014Z,96700.03
2022-12-20T05:55:47.251Z,96720.88
2022-12-20T05:58:15.316Z,96709.84
2022-12-20T06:00:52.485Z,96712.44
2022-12-20T06:03:20.224Z,96720.19
2022-12-20T06:05:47.677Z,96727.38
2022-12-20T06:08:21.653Z,96686.31
2022-12-20T06:10:50.060Z,96697.66
2022-12-20T06:13:18.467Z,96714.81
2022-12-20T06:15:46.902Z,96680.66
2022-12-20T06:18:14.250Z,96717.31
2022-12-20T06:20:41.320Z,96672.78
2022-12-20T06:23:11.024Z,96692.56
2022-12-20T06:25:45.130Z,96723.72
2022-12-20T06:28:12.941Z,96711.25
2022-12-20T06:30:40.103Z,96660.00
2022-12-20T06:33:18.546Z,96716.25
2022-12-20T06:35:46.127Z,96693.47
2022-12-20T06:38:14.155Z,96678.25
2022-12-20T06:40:41.286Z,96683.81
2022-12-20T06:43:08.668Z,96721.13
2022-12-20T06:45:41.536Z,96722.66
2022-12-20T06:48:11.022Z,96716.56
2022-12-20T06:50:39.647Z,96686.19
2022-12-20T06:53:07.547Z,96649.16
2022-12-20T06:55:35.241Z,96706.09
2022-12-20T06:58:03.993Z,96709.28
2022-12-20T07:00:32.471Z,96679.16
2022-12-20T07:02:59.772Z,96707.91
2022-12-20T07:05:27.596Z,96688.72
2022-12-20T07:07:54.935Z,96692.03
2022-12-20T07:10:22.256Z,96694.13
2022-12-20T07:12:49.516Z,96683.22
2022-12-20T07:15:17.194Z,96687.34
2022-12-20T07:17:44.785Z,96691.91
2022-12-20T07:20:14.033Z,96681.59
2022-12-20T07:22:41.921Z,96689.84
2022-12-20T07:25:09.378Z,96679.78
2022-12-20T07:27:36.526Z,96660.16
2022-12-20T07:30:05.265Z,96689.44
2022-12-20T07:32:32.506Z,96690.00
2022-12-20T07:34:59.634Z,96674.81
2022-12-20T07:37:28.974Z,96677.16
2022-12-20T07:39:56.627Z,96661.69
2022-12-20T07:42:25.496Z,96619.69
2022-12-20T07:44:59.963Z,96694.03
2022-12-20T07:47:27.165Z,96694.84
2022-12-20T07:49:55.742Z,96639.44
2022-12-20T07:52:27.893Z,96647.75
2022-12-20T07:55:02.758Z,96656.31
2022-12-20T07:57:49.098Z,96675.34
2022-12-20T08:00:18.780Z,96664.34
2022-12-20T08:03:13.223Z,96689.88
2022-12-20T08:05:46.379Z,96666.66
2022-12-20T08:08:15.208Z,96665.94
2022-12-20T08:10:42.754Z,96671.47
2022-12-20T08:13:10.232Z,96664.28
2022-12-20T08:15:37.670Z,96673.78
2022-12-20T08:18:06.217Z,96678.22
2022-12-20T08:20:34.148Z,96675.72
2022-12-20T08:23:04.334Z,96624.09
2022-12-20T08:25:37.342Z,96665.09
2022-12-20T08:28:08.179Z,96644.94
2022-12-20T08:30:35.738Z,96664.38
2022-12-20T08:33:02.777Z,96644.78
2022-12-20T08:35:29.975Z,96667.13
2022-12-20T08:37:57.355Z,96625.28
2022-12-20T08:40:24.763Z,96643.50
2022-12-20T08:42:51.804Z,96643.44
2022-12-20T08:45:20.057Z,96637.91
2022-12-20T08:47:48.204Z,96635.00
2022-12-20T08:50:15.220Z,96648.09
2022-12-20T08:52:42.206Z,96636.91
2022-12-20T08:55:12.759Z,96640.16
2022-12-20T08:57:40.274Z,96642.63
2022-12-20T09:00:07.891Z,96637.38
2022-12-20T09:02:35.678Z,96632.47
2022-12-20T09:05:02.847Z,96646.78
2022-12-20T09:07:30.562Z,96610.75
2022-12-20T09:09:57.541Z,96620.63
2022-12-20T09:12:24.885Z,96630.94
2022-12-20T09:14:51.948Z,96612.53
2022-12-20T09:17:18.869Z,96619.03
2022-12-20T09:19:45.920Z,96620.06
2022-12-20T09:22:13.063Z,96615.63
2022-12-20T09:24:40.304Z,96585.50
2022-12-20T09:27:07.341Z,96596.63
2022-12-20T09:29:35.872Z,96585.88
2022-12-20T09:32:03.785Z,96585.88
2022-12-20T09:34:30.967Z,96603.91
2022-12-20T09:36:58.246Z,96605.28
2022-12-20T09:39:25.533Z,96557.09
2022-12-20T09:41:52.827Z,96596.25
2022-12-20T09:44:31.772Z,96561.47
2022-12-20T09:47:03.708Z,96587.59
2022-12-20T09:49:39.049Z,96576.56
2022-12-20T09:52:24.372Z,96584.22
2022-12-20T09:55:13.862Z,96584.13
2022-12-20T09:58:08.471Z,96547.53
2022-12-20T10:00:41.132Z,96531.19
2022-12-20T10:03:23.147Z,96559.69
2022-12-20T10:05:54.759Z,96556.91
2022-12-20T10:08:40.269Z,96551.31
2022-12-20T10:11:16.449Z,96547.91
2022-12-20T10:13:52.649Z,96542.69
2022-12-20T10:16:42.905Z,96539.59
2022-12-20T10:19:44.164Z,96518.41
2022-12-20T10:22:22.742Z,96485.88
2022-12-20T10:25:13.495Z,96499.84
2022-12-20T10:27:43.038Z,96487.66
2022-12-20T10:30:19.252Z,96471.59
2022-12-20T10:32:48.595Z,96479.53
2022-12-20T10:35:23.897Z,96475.06
2022-12-20T10:38:09.545Z,96468.34
2022-12-20T10:41:24.736Z,96464.44
2022-12-20T10:44:15.367Z,96459.53
2022-12-20T10:46:46.213Z,96457.88
2022-12-20T10:49:31.711Z,96452.47
2022-12-20T10:52:21.444Z,96435.66
2022-12-20T10:54:48.653Z,96445.03
2022-12-20T10:57:31.885Z,96447.69
2022-12-20T11:00:06.327Z,96439.25
2022-12-20T11:02:41.417Z,96441.22
2022-12-20T11:05:09.951Z,96434.09
2022-12-20T11:08:08.489Z,96412.84
2022-12-20T11:10:35.164Z,96419.09
2022-12-20T11:13:03.618Z,96424.03
2022-12-20T11:15:36.403Z,96414.28
2022-12-20T11:18:12.485Z,96410.34
2022-12-20T11:20:51.776Z,96416.09
2022-12-20T11:23:33.940Z,96406.03
2022-12-20T11:26:31.796Z,96396.28
2022-12-20T11:29:25.829Z,96354.28
2022-12-20T11:32:02.017Z,96393.97
2022-12-20T11:34:38.183Z,96397.88
2022-12-20T11:37:11.315Z,96389.97
2022-12-20T11:39:56.769Z,96385.84
2022-12-20T11:42:29.035Z,96368.66
2022-12-20T11:45:10.370Z,96356.13
2022-12-20T11:47:55.966Z,96358.25
2022-12-20T11:50:52.857Z,96371.75
2022-12-20T11:53:50.527Z,96370.25
2022-12-20T11:56:35.429Z,96340.09
2022-12-20T11:59:15.894Z,96366.56
2022-12-20T12:02:06.400Z,96368.53
2022-12-20T12:04:43.156Z,96355.50
2022-12-20T12:07:24.304Z,96353.50
2022-12-20T12:10:03.284Z,96358.56
2022-12-20T12:12:40.732Z,96344.69
2022-12-20T12:15:31.987Z,96327.81
2022-12-20T12:18:35.762Z,96350.47
2022-12-20T12:21:09.509Z,96353.25
2022-12-20T12:23:55.670Z,96345.75
2022-12-20T12:26:29.964Z,96335.03
2022-12-20T12:29:01.045Z,96341.94
2022-12-20T12:31:49.745Z,96340.38
2022-12-20T12:34:25.722Z,96344.84
2022-12-20T12:37:16.333Z,96336.16
2022-12-20T12:39:49.506Z,96340.28
2022-12-20T12:42:45.018Z,96337.63
2022-12-20T12:45:17.907Z,96339.44
2022-12-20T12:47:58.594Z,96328.22
2022-12-20T12:50:47.577Z,96305.03
2022-12-20T12:53:36.825Z,96324.59
2022-12-20T12:56:46.796Z,96319.13
2022-12-20T12:59:29.511Z,96322.88
2022-12-20T13:02:17.326Z,96320.00
2022-12-20T13:04:57.001Z,96315.06
2022-12-20T13:07:30.684Z,96312.25
2022-12-20T13:09:57.796Z,96303.69
2022-12-20T13:12:56.539Z,96304.75
2022-12-20T13:15:23.587Z,96304.22
2022-12-20T13:17:58.192Z,96277.22
2022-12-20T13:20:33.609Z,96301.06
2022-12-20T13:23:12.732Z,96310.81
2022-12-20T13:25:46.090Z,96111.88
2022-12-20T13:28:16.877Z,96304.88
2022-12-20T13:30:45.560Z,96295.66
2022-12-20T13:33:24.328Z,96303.41
2022-12-20T13:36:01.118Z,96285.78
2022-12-20T13:38:47.869Z,96290.91
2022-12-20T13:41:36.612Z,96280.22
2022-12-20T13:44:16.155Z,96273.22
2022-12-20T13:46:46.971Z,96295.25
2022-12-20T13:49:38.661Z,96297.25
2022-12-20T13:52:11.978Z,96294.06
2022-12-20T13:54:45.446Z,96292.91
2022-12-20T13:57:40.589Z,96291.25
2022-12-20T14:00:19.715Z,96285.66
2022-12-20T14:02:47.287Z,96296.38
2022-12-20T14:05:26.409Z,96279.91
2022-12-20T14:08:00.551Z,96284.03
2022-12-20T14:10:29.350Z,96283.75
2022-12-20T14:12:56.908Z,96276.16
2022-12-20T14:15:26.869Z,96276.50
2022-12-20T14:17:54.258Z,96277.22
2022-12-20T14:20:23.752Z,96263.88
2022-12-20T14:23:04.166Z,96268.34
2022-12-20T14:25:38.155Z,96268.28
2022-12-20T14:28:06.684Z,96276.84
2022-12-20T14:30:43.871Z,96274.06
2022-12-20T14:33:39.342Z,96263.56
2022-12-20T14:36:15.632Z,96274.97
2022-12-20T14:38:45.283Z,96258.63
2022-12-20T14:41:31.946Z,96253.09
2022-12-20T14:44:03.924Z,96258.69
2022-12-20T14:46:31.538Z,96252.16
2022-12-20T14:49:26.558Z,96273.47
2022-12-20T14:52:15.248Z,96261.28
2022-12-20T14:57:50.411Z,96243.72
2022-12-20T15:00:23.462Z,96245.53
2022-12-20T15:02:56.524Z,96246.06
2022-12-20T15:05:42.668Z,96218.63
2022-12-20T15:08:40.868Z,96249.44
2022-12-20T15:11:11.001Z,96244.00
2022-12-20T15:13:42.548Z,96241.88
2022-12-20T15:16:21.773Z,96243.22
2022-12-20T15:18:50.261Z,96250.00
2022-12-20T15:21:22.552Z,96250.81
2022-12-20T15:23:54.382Z,96256.25
2022-12-20T15:26:24.928Z,96255.78
2022-12-20T15:28:52.243Z,96248.38
2022-12-20T15:31:24.738Z,96252.81
2022-12-20T15:33:54.912Z,96251.88
2022-12-20T15:36:26.464Z,96249.22
2022-12-20T15:39:11.922Z,96243.63
2022-12-20T15:41:44.648Z,96242.47
2022-12-20T15:44:17.698Z,96241.31
2022-12-20T15:46:45.217Z,96258.78
2022-12-20T15:49:26.071Z,96254.84
2022-12-20T15:51:54.364Z,96251.84
2022-12-20T15:54:34.728Z,96230.44
2022-12-20T15:57:09.805Z,96220.91
2022-12-20T16:02:29.254Z,96241.97
2022-12-20T16:04:57.725Z,96223.88
2022-12-20T16:07:24.959Z,96246.09
2022-12-20T16:09:52.025Z,96242.16
2022-12-20T16:12:26.956Z,96238.03
2022-12-20T16:14:55.302Z,96234.09
2022-12-20T16:17:22.792Z,96206.72
2022-12-20T16:19:50.680Z,96234.91
2022-12-20T16:22:20.620Z,96249.91
2022-12-20T16:24:48.048Z,96231.13
2022-12-20T16:27:15.640Z,96224.19
2022-12-20T16:29:42.684Z,96231.75
2022-12-20T16:32:18.352Z,96221.22
2022-12-20T16:34:46.169Z,96227.66
2022-12-20T16:37:13.906Z,96209.19
2022-12-20T16:39:42.356Z,96197.19
2022-12-20T16:42:18.562Z,96210.84
2022-12-20T16:44:46.353Z,96195.38
2022-12-20T16:47:15.082Z,96220.56
2022-12-20T16:49:49.650Z,96207.03
2022-12-20T16:52:19.991Z,96223.03
2022-12-20T16:54:47.527Z,96215.28
2022-12-20T16:57:14.723Z,96207.38
2022-12-20T16:59:41.771Z,96224.19
2022-12-20T17:02:30.550Z,96213.66
2022-12-20T17:04:58.491Z,96200.63
2022-12-20T17:07:25.897Z,96192.75
2022-12-20T17:09:55.075Z,96212.16
2022-12-20T17:12:23.036Z,96220.88
2022-12-20T17:14:50.137Z,96195.19
2022-12-20T17:17:17.736Z,96201.63
2022-12-20T17:19:44.953Z,96168.84
2022-12-20T17:24:57.074Z,96216.91
2022-12-20T17:27:24.311Z,96207.53
2022-12-20T17:29:52.320Z,96188.25
2022-12-20T17:32:22.525Z,96201.59
2022-12-20T17:34:49.563Z,96210.63
2022-12-20T17:37:17.948Z,96217.06
2022-12-20T17:39:45.230Z,96208.16
2022-12-20T17:42:16.038Z,96197.63
2022-12-20T17:44:43.687Z,96216.50
2022-12-20T17:47:11.924Z,96218.66
2022-12-20T17:49:39.264Z,96190.28
2022-12-20T17:52:06.529Z,96205.59
2022-12-20T17:54:39.744Z,96215.16
2022-12-20T17:57:15.711Z,96188.75
2022-12-20T17:59:43.836Z,96214.47
2022-12-20T18:02:24.003Z,96126.47
2022-12-20T18:04:51.878Z,96201.75
2022-12-20T18:07:19.276Z,96193.50
2022-12-20T18:09:48.263Z,96197.78
2022-12-20T18:12:15.352Z,96206.50
2022-12-20T18:15:01.285Z,96198.25
2022-12-20T18:17:32.123Z,96163.66
2022-12-20T18:19:59.136Z,96203.81
2022-12-20T18:22:26.129Z,96191.94
2022-12-20T18:24:53.109Z,96201.00
2022-12-20T18:27:25.182Z,96209.06
2022-12-20T18:29:55.835Z,96202.44
2022-12-20T18:32:23.040Z,96188.28
2022-12-20T18:34:50.020Z,96189.94
2022-12-20T18:37:17.068Z,96179.59
2022-12-20T18:39:44.129Z,96154.72
2022-12-20T18:42:11.411Z,96158.00
2022-12-20T18:44:38.508Z,96169.00
2022-12-20T18:47:05.882Z,96174.13
2022-12-20T18:49:33.868Z,96185.97
2022-12-20T18:52:01.275Z,96152.69
2022-12-20T18:54:30.478Z,96167.22
2022-12-20T18:56:58.582Z,96164.44
2022-12-20T18:59:26.004Z,96160.66
2022-12-20T19:01:54.635Z,96164.28
2022-12-20T19:04:24.890Z,96174.19
2022-12-20T19:06:52.734Z,96171.25
2022-12-20T19:09:19.753Z,96168.91
2022-12-20T19:11:51.618Z,96162.16
2022-12-20T19:14:21.913Z,96163.16
2022-12-20T19:16:50.263Z,96163.16
2022-12-20T19:19:17.733Z,96155.09
2022-12-20T19:21:45.039Z,96154.91
2022-12-20T19:24:12.474Z,96154.25
2022-12-20T19:26:39.911Z,96161.13
2022-12-20T19:29:07.498Z,96150.44
2022-12-20T19:31:37.478Z,96158.31
2022-12-20T19:34:08.095Z,96155.38
2022-12-20T19:36:41.709Z,96156.50
2022-12-20T19:39:14.177Z,96146.78
2022-12-20T19:41:41.506Z,96145.63
2022-12-20T19:44:09.442Z,96148.78
2022-12-20T19:46:36.790Z,96136.63
2022-12-20T19:49:04.273Z,96131.19
2022-12-20T19:51:31.665Z,96140.22
2022-12-20T19:53:59.504Z,96142.19
2022-12-20T19:56:30.357Z,96141.50
2022-12-20T19:58:57.973Z,96146.28
2022-12-20T20:01:27.615Z,96117.59
2022-12-20T20:03:56.852Z,96131.91
2022-12-20T20:06:24.690Z,96149.50
2022-12-20T20:08:52.074Z,96122.03
2022-12-20T20:11:19.641Z,96128.78
2022-12-20T20:13:46.867Z,96144.75
2022-12-20T20:16:18.466Z,96138.50
2022-12-20T20:18:49.225Z,96143.28
2022-12-20T20:21:20.998Z,96136.38
2022-12-20T20:23:52.837Z,96144.41
2022-12-20T20:26:24.259Z,96143.09
2022-12-20T20:28:52.246Z,96104.88
2022-12-20T20:31:20.381Z,96137.84
2022-12-20T20:33:47.632Z,96066.72
2022-12-20T20:36:20.905Z,96136.69
2022-12-20T20:38:49.850Z,96010.41
2022-12-20T20:41:17.590Z,96119.41
2022-12-20T20:43:45.137Z,96110.69
2022-12-20T20:46:14.720Z,96107.53
2022-12-20T20:48:42.897Z,96127.66
2022-12-20T20:51:10.308Z,96129.28
2022-12-20T20:53:38.189Z,96129.44
2022-12-20T20:56:07.488Z,96135.53
2022-12-20T20:58:35.043Z,96126.31
2022-12-20T21:01:05.032Z,96118.38
2022-12-20T21:03:32.538Z,96115.25
2022-12-20T21:06:36.550Z,96119.22
2022-12-20T21:08:47.213Z,96113.59
2022-12-20T21:11:14.546Z,96118.00
2022-12-20T21:13:41.985Z,96116.22
2022-12-20T21:16:16.259Z,96108.34
2022-12-20T21:18:43.374Z,96111.25
2022-12-20T21:21:13.133Z,96093.16
2022-12-20T21:23:45.070Z,96110.59
2022-12-20T21:26:13.690Z,96114.38
2022-12-20T21:28:41.467Z,96086.06
2022-12-20T21:31:11.117Z,96107.47
2022-12-20T21:33:39.031Z,96096.91
2022-12-20T21:36:15.541Z,96098.25
2022-12-20T21:38:50.984Z,96080.28
2022-12-20T21:41:20.294Z,96098.41
2022-12-20T21:43:47.160Z,96094.28
2022-12-20T21:46:14.113Z,96094.38
2022-12-20T21:48:43.078Z,96095.72
2022-12-20T21:51:10.410Z,96093.94
2022-12-20T21:53:46.163Z,96086.47
2022-12-20T21:56:13.883Z,96091.75
2022-12-20T21:58:40.824Z,96068.25
2022-12-20T22:01:09.273Z,96089.13
2022-12-20T22:03:37.766Z,96087.47
2022-12-20T22:06:05.247Z,96046.25
2022-12-20T22:08:33.895Z,96097.00
2022-12-20T22:11:07.092Z,96071.53
2022-12-20T22:13:40.732Z,96053.06
2022-12-20T22:16:21.133Z,96085.00
2022-12-20T22:18:51.007Z,96069.38
2022-12-20T22:21:20.230Z,96077.44
2022-12-20T22:23:47.742Z,96054.72
2022-12-20T22:26:17.626Z,96079.75
2022-12-20T22:28:47.353Z,96062.03
2022-12-20T22:31:14.729Z,96062.50
2022-12-20T22:33:42.965Z,96054.16
2022-12-20T22:36:12.316Z,96052.00
2022-12-20T22:38:39.623Z,96048.91
2022-12-20T22:41:12.043Z,96036.22
2022-12-20T22:43:41.393Z,96035.56
2022-12-20T22:46:12.095Z,96012.88
2022-12-20T22:48:40.307Z,96021.91
2022-12-20T22:51:20.322Z,96021.09
2022-12-20T22:53:49.257Z,96004.47
2022-12-20T22:56:18.566Z,96016.81
2022-12-20T22:58:45.791Z,96014.19
2022-12-20T23:01:16.189Z,96021.59
2022-12-20T23:03:44.603Z,95974.53
2022-12-20T23:06:14.607Z,96018.31
2022-12-20T23:08:43.344Z,96013.69
2022-12-20T23:11:38.954Z,95999.91
2022-12-20T23:14:29.224Z,96014.00
2022-12-20T23:16:57.157Z,96009.88
2022-12-20T23:19:24.290Z,96003.66
2022-12-20T23:22:09.891Z,96020.06
2022-12-20T23:24:36.865Z,96003.97
2022-12-20T23:27:04.122Z,95954.75
2022-12-20T23:29:31.908Z,96007.09
2022-12-20T23:31:59.089Z,95992.34
2022-12-20T23:34:26.528Z,95968.13
2022-12-20T23:36:53.667Z,95968.31
2022-12-20T23:39:20.730Z,95981.66
2022-12-20T23:41:51.897Z,95972.28
2022-12-20T23:44:20.256Z,95961.44
2022-12-20T23:46:47.188Z,95949.91
2022-12-20T23:49:14.337Z,95982.28
2022-12-20T23:51:41.286Z,95985.25
2022-12-20T23:54:09.386Z,95981.97
2022-12-20T23:56:36.459Z,95982.41
2022-12-20T23:59:04.008Z,95983.09
